Time;durP1;ratioP1;P1;durP2;ratioP2;P2;SDS_P1;SDS_P2;PMS_P1;PMS_P2;Temp;Humidity;BMP_temperature;BMP_pressure;BME280_temperature;BME280_humidity;BME280_pressure;Samples;Min_cycle;Max_cycle;Signal;HPM_P1;HPM_P2
2022/08/11 00:00:43;;;;;;;4.80;4.40;;;17.60;99.90;;;;;;5009823;28;20101;-87
2022/08/11 00:03:12;;;;;;;4.95;4.03;;;17.50;99.90;;;;;;4994593;28;20094;-86
2022/08/11 00:05:51;;;;;;;6.95;5.20;;;17.50;99.90;;;;;;4994897;28;20041;-87
2022/08/11 00:08:27;;;;;;;6.85;5.35;;;17.50;99.90;;;;;;4995371;28;20076;-87
2022/08/11 00:11:03;;;;;;;6.13;5.22;;;17.50;99.90;;;;;;4998139;28;20051;-86
2022/08/11 00:13:38;;;;;;;5.40;4.82;;;17.40;99.90;;;;;;5029887;28;20057;-86
2022/08/11 00:16:15;;;;;;;5.07;4.57;;;17.30;99.90;;;;;;5002216;28;20033;-87
2022/08/11 00:18:52;;;;;;;5.05;4.65;;;17.30;99.90;;;;;;4980469;28;20095;-86
2022/08/11 00:21:23;;;;;;;5.80;5.18;;;17.30;99.90;;;;;;4991506;28;20072;-87
2022/08/11 00:23:55;;;;;;;5.93;4.78;;;17.30;99.90;;;;;;4986038;28;20033;-87
2022/08/11 00:26:22;;;;;;;6.37;5.13;;;17.20;99.90;;;;;;4989412;28;20103;-87
2022/08/11 00:28:50;;;;;;;6.90;5.03;;;17.20;99.90;;;;;;4988878;28;20041;-87
2022/08/11 00:31:32;;;;;;;5.40;4.90;;;17.20;99.90;;;;;;4993908;28;20041;-87
2022/08/11 00:33:59;;;;;;;6.05;5.45;;;17.10;99.90;;;;;;4992686;28;20132;-86
2022/08/11 00:36:37;;;;;;;5.97;5.38;;;17.10;99.90;;;;;;5009894;28;20033;-86
2022/08/11 00:39:05;;;;;;;6.18;5.10;;;17.10;99.90;;;;;;5004846;28;20029;-87
2022/08/11 00:42:05;;;;;;;6.28;5.20;;;17.00;99.90;;;;;;5004795;28;20548;-87
2022/08/11 00:44:47;;;;;;;6.53;5.68;;;17.00;99.90;;;;;;4992187;28;20073;-87
2022/08/11 00:47:18;;;;;;;5.82;5.20;;;17.00;99.90;;;;;;4978895;28;20034;-87
2022/08/11 00:50:02;;;;;;;7.18;6.53;;;17.00;99.90;;;;;;4991659;28;20045;-87
2022/08/11 00:52:46;;;;;;;6.95;5.35;;;16.90;99.90;;;;;;4990901;28;20048;-87
2022/08/11 00:55:50;;;;;;;6.25;5.75;;;16.90;99.90;;;;;;4997435;28;20048;-87
2022/08/11 00:58:28;;;;;;;6.30;5.10;;;16.90;99.90;;;;;;5010759;28;20038;-87
2022/08/11 01:01:04;;;;;;;7.72;6.85;;;16.80;99.90;;;;;;4981177;28;20107;-87
2022/08/11 01:03:32;;;;;;;6.50;5.90;;;16.80;99.90;;;;;;4993868;28;20037;-86
2022/08/11 01:06:35;;;;;;;8.10;6.95;;;16.80;99.90;;;;;;4992648;28;20033;-87
2022/08/11 01:09:34;;;;;;;5.53;5.03;;;16.70;99.90;;;;;;4985068;28;20048;-86
2022/08/11 01:12:24;;;;;;;6.85;5.75;;;16.70;99.90;;;;;;4988139;28;20037;-87
2022/08/11 01:14:56;;;;;;;5.97;5.40;;;16.60;99.90;;;;;;4993761;28;20122;-87
2022/08/11 01:18:00;;;;;;;6.40;5.80;;;16.60;99.90;;;;;;4990672;28;20432;-87
2022/08/11 01:20:35;;;;;;;7.03;6.32;;;16.60;99.90;;;;;;4965656;28;20049;-87
2022/08/11 01:23:19;;;;;;;6.88;6.18;;;16.60;99.90;;;;;;4990944;28;20048;-87
2022/08/11 01:26:25;;;;;;;8.65;6.78;;;16.50;99.90;;;;;;4982867;28;20488;-87
2022/08/11 01:28:57;;;;;;;6.95;6.07;;;16.50;99.90;;;;;;5002014;28;20040;-87
2022/08/11 01:31:45;;;;;;;8.20;6.22;;;16.50;99.90;;;;;;4990720;28;20112;-87
2022/08/11 01:34:14;;;;;;;6.70;6.10;;;16.50;99.90;;;;;;4989430;28;20038;-87
2022/08/11 01:36:57;;;;;;;7.38;6.57;;;16.50;99.90;;;;;;4989414;28;20385;-87
2022/08/11 01:39:42;;;;;;;8.93;6.30;;;16.40;99.90;;;;;;4997679;28;20045;-87
2022/08/11 01:45:53;;;;;;;7.32;6.45;;;16.40;99.90;;;;;;5006984;28;20042;-87
2022/08/11 01:48:36;;;;;;;8.15;6.72;;;16.40;99.90;;;;;;4990212;28;20048;-87
2022/08/11 01:51:14;;;;;;;9.20;7.13;;;16.40;99.90;;;;;;4988512;28;20050;-87
2022/08/11 01:54:14;;;;;;;6.97;6.30;;;16.30;99.90;;;;;;4994412;28;20184;-87
2022/08/11 01:56:59;;;;;;;7.97;7.20;;;16.30;99.90;;;;;;5008521;28;20069;-87
2022/08/11 01:59:48;;;;;;;8.15;7.35;;;16.30;99.90;;;;;;4991235;28;20052;-87
2022/08/11 02:02:47;;;;;;;8.02;6.80;;;16.30;99.90;;;;;;4995126;28;20673;-87
2022/08/11 02:05:34;;;;;;;8.10;7.30;;;16.20;99.90;;;;;;4991856;28;20488;-87
2022/08/11 02:08:27;;;;;;;8.07;7.22;;;16.30;99.90;;;;;;4991619;28;20040;-87
2022/08/11 02:13:59;;;;;;;8.20;7.10;;;16.20;99.90;;;;;;5014237;28;20042;-87
2022/08/11 02:16:35;;;;;;;9.17;7.87;;;16.20;99.90;;;;;;4994453;28;20037;-87
2022/08/11 02:26:09;;;;;;;8.65;7.85;;;16.10;99.90;;;;;;5010281;28;20128;-87
2022/08/11 02:28:59;;;;;;;8.32;7.43;;;16.10;99.90;;;;;;4990879;28;20124;-86
2022/08/11 02:34:27;;;;;;;9.40;8.13;;;16.00;99.90;;;;;;5006045;28;20042;-87
2022/08/11 02:37:16;;;;;;;7.97;7.18;;;16.00;99.90;;;;;;4988817;28;20064;-87
2022/08/11 02:40:10;;;;;;;8.98;7.63;;;16.00;99.90;;;;;;4995742;28;20045;-87
2022/08/11 02:42:45;;;;;;;10.23;8.02;;;16.00;99.90;;;;;;5006677;28;20041;-87
2022/08/11 02:45:11;;;;;;;8.88;7.18;;;16.00;99.90;;;;;;5012551;28;20041;-87
2022/08/11 02:50:51;;;;;;;9.90;8.73;;;15.90;99.90;;;;;;5012436;28;20117;-87
2022/08/11 02:53:38;;;;;;;8.68;7.78;;;15.90;99.90;;;;;;4998810;28;20034;-87
2022/08/11 02:56:22;;;;;;;8.52;7.72;;;15.80;99.90;;;;;;4994459;28;20095;-87
2022/08/11 03:01:51;;;;;;;10.90;8.70;;;15.80;99.90;;;;;;5012449;28;20038;-87
2022/08/11 03:04:26;;;;;;;11.13;10.02;;;15.80;99.90;;;;;;4994088;28;20107;-87
2022/08/11 03:07:04;;;;;;;9.00;8.10;;;15.80;99.90;;;;;;5015173;28;20037;-87
2022/08/11 03:09:36;;;;;;;9.95;8.07;;;15.70;99.90;;;;;;4989913;28;20504;-87
2022/08/11 03:18:17;;;;;;;11.43;9.65;;;15.70;99.90;;;;;;5017024;28;20046;-87
2022/08/11 03:20:46;;;;;;;10.63;9.30;;;15.70;99.90;;;;;;4995128;28;20096;-87
2022/08/11 03:23:32;;;;;;;10.23;9.07;;;15.70;99.90;;;;;;4996624;28;20037;-87
2022/08/11 03:26:03;;;;;;;10.30;9.15;;;15.60;99.90;;;;;;4986418;28;20095;-87
2022/08/11 03:29:03;;;;;;;12.13;10.32;;;15.60;99.90;;;;;;4986186;28;20091;-87
2022/08/11 03:31:41;;;;;;;9.88;8.98;;;15.60;99.90;;;;;;4979271;28;20065;-87
2022/08/11 03:34:24;;;;;;;10.73;9.50;;;15.60;99.90;;;;;;4996625;28;20061;-88
2022/08/11 03:37:05;;;;;;;10.97;9.83;;;15.60;99.90;;;;;;4992789;28;20385;-87
2022/08/11 03:39:34;;;;;;;12.27;9.77;;;15.60;99.90;;;;;;5002633;28;20034;-87
2022/08/11 03:42:08;;;;;;;14.27;9.93;;;15.60;99.90;;;;;;4995674;28;20045;-87
2022/08/11 03:44:52;;;;;;;11.82;10.15;;;15.50;99.90;;;;;;4991140;28;20087;-87
2022/08/11 03:47:28;;;;;;;15.43;11.32;;;15.50;99.90;;;;;;4992824;28;20041;-88
2022/08/11 03:50:23;;;;;;;10.57;9.50;;;15.50;99.90;;;;;;4988634;28;20041;-87
2022/08/11 03:53:07;;;;;;;11.48;10.20;;;15.50;99.90;;;;;;4994598;28;20057;-87
2022/08/11 03:56:10;;;;;;;11.27;10.20;;;15.50;99.90;;;;;;4994872;28;20539;-87
2022/08/11 03:58:42;;;;;;;15.40;10.35;;;15.40;99.90;;;;;;4991405;28;20099;-87
2022/08/11 04:01:39;;;;;;;11.68;9.98;;;15.40;99.90;;;;;;4982216;28;20484;-87
2022/08/11 04:04:23;;;;;;;11.80;10.45;;;15.40;99.90;;;;;;4989499;28;20037;-87
2022/08/11 04:07:00;;;;;;;;;;;15.30;99.90;;;;;;4991428;28;20037;-87
2022/08/11 04:09:54;;;;;;;11.43;9.95;;;15.30;99.90;;;;;;5006207;28;19921;-86
2022/08/11 04:12:32;;;;;;;13.57;11.00;;;15.30;99.90;;;;;;5001635;28;20431;-83
2022/08/11 04:18:39;;;;;;;13.18;11.77;;;15.20;99.90;;;;;;5017710;28;20038;-82
2022/08/11 04:21:43;;;;;;;11.23;10.13;;;15.20;99.90;;;;;;5002370;28;20601;-82
2022/08/11 04:24:36;;;;;;;13.45;12.07;;;15.20;99.90;;;;;;4997130;28;20040;-82
2022/08/11 04:27:36;;;;;;;14.10;12.47;;;15.20;99.90;;;;;;4997480;28;20130;-81
2022/08/11 04:30:13;;;;;;;13.25;11.93;;;15.20;99.90;;;;;;4996809;28;20284;-82
2022/08/11 04:32:58;;;;;;;13.60;12.15;;;15.20;99.90;;;;;;4997459;28;20134;-82
2022/08/11 04:36:06;;;;;;;12.77;11.50;;;15.20;99.90;;;;;;4999179;28;20387;-82
2022/08/11 04:39:10;;;;;;;16.33;11.45;;;15.30;99.90;;;;;;4999822;28;20658;-82
2022/08/11 04:43:19;;;;;;;13.60;12.20;;;15.30;99.90;;;;;;4916646;29;20409;-82
2022/08/11 04:44:30;;;;;;;;;;;15.30;99.90;;;;;;4925650;29;20044;-82
2022/08/11 05:03:02;;;;;;;17.27;15.32;;;15.40;99.90;;;;;;5007141;28;20515;-81
2022/08/11 05:05:51;;;;;;;14.80;13.30;;;15.40;99.90;;;;;;4997283;28;20072;-81
2022/08/11 05:08:35;;;;;;;14.88;13.38;;;15.40;99.90;;;;;;4992314;28;20447;-81
2022/08/11 05:11:19;;;;;;;15.77;14.18;;;15.40;99.90;;;;;;4992868;28;20481;-81
2022/08/11 05:36:53;;;;;;;16.98;15.18;;;15.80;99.90;;;;;;5009153;28;20045;-87
2022/08/11 05:59:18;;;;;;;17.52;12.85;;;16.30;99.90;;;;;;5006813;28;20037;-87
2022/08/11 06:01:46;;;;;;;14.30;12.85;;;16.40;99.90;;;;;;4995812;28;20074;-87
2022/08/11 06:04:24;;;;;;;15.30;13.70;;;16.40;99.90;;;;;;4989940;28;20049;-87
2022/08/11 06:06:53;;;;;;;14.75;13.15;;;16.50;99.90;;;;;;4998810;28;20034;-87
2022/08/11 06:09:37;;;;;;;12.55;11.23;;;16.60;99.90;;;;;;4985217;28;20041;-88
2022/08/11 06:12:07;;;;;;;;;;;16.70;99.90;;;;;;4993639;28;20068;-87
2022/08/11 06:14:34;;;;;;;13.95;12.63;;;16.80;99.90;;;;;;4997935;28;20012;-88
2022/08/11 06:17:05;;;;;;;13.82;12.40;;;16.80;99.90;;;;;;4992989;28;20531;-88
2022/08/11 06:19:38;;;;;;;12.70;11.48;;;16.90;99.90;;;;;;4994595;28;20120;-87
2022/08/11 06:22:06;;;;;;;11.77;10.57;;;17.00;99.90;;;;;;4990080;28;20116;-87
2022/08/11 06:24:35;;;;;;;13.07;11.88;;;17.10;99.90;;;;;;5005539;28;20095;-87
2022/08/11 06:27:02;;;;;;;13.55;11.10;;;17.10;99.90;;;;;;4995189;28;20036;-87
2022/08/11 06:29:30;;;;;;;11.98;10.68;;;17.20;99.90;;;;;;4996743;28;20079;-87
2022/08/11 06:32:03;;;;;;;12.52;11.35;;;17.20;99.90;;;;;;4992689;28;20037;-88
2022/08/11 06:35:00;;;;;;;12.13;10.93;;;17.30;99.90;;;;;;4988647;28;20045;-88
2022/08/11 06:37:47;;;;;;;10.05;9.02;;;17.40;99.90;;;;;;4995300;28;20051;-87
2022/08/11 06:40:34;;;;;;;13.20;10.13;;;17.50;99.90;;;;;;5017286;28;20037;-87
2022/08/11 06:43:08;;;;;;;11.20;9.98;;;17.60;99.90;;;;;;4990700;28;20451;-88
2022/08/11 06:46:07;;;;;;;10.18;9.10;;;17.60;99.90;;;;;;4994499;28;20096;-88
2022/08/11 06:48:33;;;;;;;12.35;10.43;;;17.70;99.90;;;;;;4984196;28;20099;-87
2022/08/11 06:51:12;;;;;;;9.90;8.90;;;17.90;99.90;;;;;;4997095;28;20129;-88
2022/08/11 06:53:45;;;;;;;9.25;8.45;;;17.90;99.90;;;;;;4992832;28;20037;-88
2022/08/11 07:01:53;;;;;;;10.32;7.75;;;18.30;99.90;;;;;;5003880;28;20497;-89
2022/08/11 07:04:45;;;;;;;8.70;6.95;;;18.40;99.90;;;;;;4986525;28;20045;-88
2022/08/11 07:16:15;;;;;;;6.97;6.22;;;19.00;99.90;;;;;;5013351;28;20045;-88
2022/08/11 07:30:01;;;;;;;6.05;5.25;;;20.00;99.90;;;;;;5011466;28;20491;-88
2022/08/11 07:32:32;;;;;;;6.07;4.20;;;20.30;99.90;;;;;;4992118;28;20111;-88
2022/08/11 07:35:15;;;;;;;7.13;4.45;;;20.60;99.90;;;;;;4997010;28;20512;-88
2022/08/11 07:37:46;;;;;;;5.13;4.03;;;20.80;99.90;;;;;;4989150;28;20041;-88
2022/08/11 07:40:13;;;;;;;4.82;4.25;;;21.10;99.90;;;;;;4984265;28;20125;-87
2022/08/11 07:42:45;;;;;;;5.65;3.78;;;21.30;99.90;;;;;;4993659;28;20041;-88
2022/08/11 07:53:29;;;;;;;2.75;2.25;;;22.40;99.90;;;;;;5014846;28;20064;-89
2022/08/11 07:55:58;;;;;;;2.88;2.40;;;22.70;99.90;;;;;;4982513;28;20480;-88
2022/08/11 08:17:56;;;;;;;3.45;1.98;;;24.60;99.90;;;;;;5002614;28;20029;-89
2022/08/11 08:20:33;;;;;;;2.35;2.10;;;24.90;99.90;;;;;;4982730;28;20120;-88
2022/08/11 08:23:01;;;;;;;3.55;2.20;;;25.00;99.90;;;;;;4989048;28;20504;-88
2022/08/11 08:25:29;;;;;;;2.13;1.95;;;25.30;99.90;;;;;;4995112;28;20575;-88
2022/08/11 08:27:57;;;;;;;2.58;2.00;;;25.40;99.70;;;;;;4987830;28;20038;-88
2022/08/11 08:33:13;;;;;;;4.15;2.05;;;25.90;97.10;;;;;;5011309;28;20072;-88
2022/08/11 08:35:41;;;;;;;3.10;2.03;;;26.20;96.70;;;;;;4989360;28;20120;-89
2022/08/11 08:38:07;;;;;;;2.28;2.08;;;26.40;92.60;;;;;;5009386;28;20065;-88
2022/08/11 08:40:33;;;;;;;3.13;1.83;;;26.60;92.70;;;;;;4983672;28;20041;-89
2022/08/11 08:43:06;;;;;;;6.32;2.20;;;26.80;92.50;;;;;;4994765;28;20388;-88
2022/08/11 08:45:34;;;;;;;5.75;1.88;;;27.10;89.80;;;;;;4983206;28;20046;-88
2022/08/11 08:48:10;;;;;;;2.28;1.90;;;27.20;80.20;;;;;;4985530;28;20063;-88
2022/08/11 08:53:31;;;;;;;2.30;1.92;;;27.70;72.20;;;;;;5012200;28;20045;-88
2022/08/11 08:56:01;;;;;;;3.15;1.67;;;27.90;68.30;;;;;;5010363;28;20048;-88
2022/08/11 08:58:29;;;;;;;2.70;2.08;;;28.00;63.90;;;;;;5001791;28;20045;-88
2022/08/11 09:00:57;;;;;;;4.90;2.00;;;28.10;63.50;;;;;;4994149;28;20037;-88
2022/08/11 09:03:23;;;;;;;3.45;1.80;;;28.20;64.10;;;;;;4992658;28;20504;-88
2022/08/11 09:05:53;;;;;;;4.57;1.95;;;28.40;63.90;;;;;;4999893;28;20069;-89
2022/08/11 09:08:20;;;;;;;2.08;1.90;;;28.70;62.10;;;;;;5001863;28;20056;-89
2022/08/11 09:11:48;;;;;;;2.40;1.60;;;28.90;59.10;;;;;;4991899;28;20040;-89
2022/08/11 09:13:35;;;;;;;2.28;1.80;;;29.00;60.40;;;;;;5014732;28;20049;-89
2022/08/11 09:16:05;;;;;;;4.35;2.17;;;29.30;58.00;;;;;;4993712;28;20061;-90
2022/08/11 09:18:32;;;;;;;3.38;2.10;;;29.50;52.90;;;;;;5000452;28;20466;-87
2022/08/11 09:21:01;;;;;;;3.00;2.10;;;29.70;55.40;;;;;;4996361;28;20041;-87
2022/08/11 09:28:58;;;;;;;2.92;2.05;;;30.40;54.20;;;;;;5012231;28;20042;-87
2022/08/11 09:31:25;;;;;;;2.97;1.80;;;30.60;52.30;;;;;;4997458;28;20056;-88
2022/08/11 09:33:54;;;;;;;2.53;2.10;;;30.60;50.40;;;;;;4992425;28;20048;-88
2022/08/11 09:41:51;;;;;;;1.95;1.85;;;31.00;49.70;;;;;;5031885;28;20038;-88
2022/08/11 09:47:04;;;;;;;1.92;1.73;;;30.90;46.50;;;;;;5030074;28;20037;-88
2022/08/11 09:49:31;;;;;;;3.88;1.77;;;31.10;46.00;;;;;;4994403;28;20059;-87
2022/08/11 09:51:57;;;;;;;4.10;1.60;;;31.30;46.50;;;;;;5014483;28;20040;-88
2022/08/11 09:54:24;;;;;;;5.63;1.85;;;31.50;45.70;;;;;;5010383;28;20454;-87
2022/08/11 09:59:40;;;;;;;2.25;2.05;;;31.90;46.10;;;;;;5012532;28;20049;-87
2022/08/11 10:02:08;;;;;;;2.28;1.83;;;32.20;45.20;;;;;;4997823;28;20038;-88
2022/08/11 10:04:41;;;;;;;3.58;2.13;;;32.40;44.60;;;;;;5000623;28;20045;-88
2022/08/11 10:07:09;;;;;;;4.13;2.20;;;32.70;43.20;;;;;;4994325;28;20404;-87
2022/08/11 10:10:00;;;;;;;4.70;1.92;;;32.60;43.70;;;;;;5006280;28;20029;-88
2022/08/11 10:12:34;;;;;;;1.95;1.75;;;33.00;44.00;;;;;;5010880;28;20030;-87
2022/08/11 10:21:01;;;;;;;3.92;1.67;;;33.10;38.90;;;;;;5003131;28;20120;-88
2022/08/11 10:33:58;;;;;;;3.28;1.60;;;33.20;42.40;;;;;;5004503;28;20129;-88
2022/08/11 10:34:44;;;;;;;3.05;1.92;;;33.40;39.90;;;;;;5017301;28;20046;-88
2022/08/11 10:37:11;;;;;;;4.75;1.90;;;33.40;40.90;;;;;;4996551;28;20129;-88
2022/08/11 10:39:39;;;;;;;1.70;1.60;;;33.60;41.20;;;;;;4995760;28;20099;-87
2022/08/11 10:44:53;;;;;;;2.15;1.75;;;33.90;39.10;;;;;;5036785;28;20124;-87
2022/08/11 10:47:35;;;;;;;2.45;1.70;;;33.60;37.70;;;;;;5029069;28;20139;-89
2022/08/11 10:58:48;;;;;;;2.28;1.35;;;33.90;38.80;;;;;;5031992;28;20256;-88
2022/08/11 11:01:21;;;;;;;3.40;1.70;;;34.00;37.30;;;;;;4996827;28;20069;-88
2022/08/11 11:03:51;;;;;;;2.45;1.70;;;33.70;36.80;;;;;;5003889;28;20397;-89
2022/08/11 11:06:32;;;;;;;2.33;1.63;;;33.80;36.90;;;;;;4981686;28;20394;-88
2022/08/11 11:09:10;;;;;;;2.28;1.65;;;33.80;36.40;;;;;;4991962;28;20055;-88
2022/08/11 11:20:13;;;;;;;3.47;1.45;;;34.50;36.60;;;;;;5000594;28;20044;-88
2022/08/11 11:22:41;;;;;;;2.20;1.50;;;34.70;37.10;;;;;;4994142;28;20507;-88
2022/08/11 11:25:20;;;;;;;1.30;1.20;;;34.90;37.40;;;;;;4994616;28;20096;-89
2022/08/11 11:28:10;;;;;;;1.65;1.55;;;34.90;33.20;;;;;;4993104;28;20523;-90
2022/08/11 11:30:48;;;;;;;2.53;1.48;;;35.10;34.90;;;;;;4990592;28;20123;-89
2022/08/11 11:33:33;;;;;;;2.17;1.38;;;34.90;34.30;;;;;;4986459;28;20040;-88
2022/08/11 11:36:15;;;;;;;2.28;1.50;;;35.10;35.20;;;;;;4996535;28;20412;-88
2022/08/11 11:38:41;;;;;;;4.28;1.65;;;35.30;34.10;;;;;;4990396;28;20119;-88
2022/08/11 11:44:04;;;;;;;1.73;1.33;;;35.50;33.70;;;;;;4988914;28;20050;-88
2022/08/11 11:46:31;;;;;;;2.70;1.60;;;35.30;33.90;;;;;;4990987;28;20566;-87
2022/08/11 11:48:59;;;;;;;4.78;1.88;;;35.40;35.40;;;;;;4997349;28;20029;-88
2022/08/11 11:51:26;;;;;;;3.33;1.80;;;35.60;34.20;;;;;;4994049;28;20045;-89
2022/08/11 11:53:53;;;;;;;1.65;1.30;;;35.60;33.60;;;;;;4994538;28;20138;-87
2022/08/11 11:56:23;;;;;;;1.88;1.48;;;35.60;35.50;;;;;;4994300;28;20044;-88
2022/08/11 12:01:34;;;;;;;2.15;1.58;;;36.00;34.50;;;;;;5017284;28;20049;-88
2022/08/11 12:04:04;;;;;;;2.17;1.40;;;36.10;33.40;;;;;;4994366;28;20095;-89
2022/08/11 12:06:31;;;;;;;3.70;1.30;;;36.30;33.20;;;;;;4988026;28;20042;-88
2022/08/11 12:08:58;;;;;;;2.22;1.42;;;36.40;33.70;;;;;;4989430;28;20037;-89
2022/08/11 12:14:11;;;;;;;1.50;1.40;;;36.70;33.40;;;;;;5007919;28;20045;-88
2022/08/11 12:16:43;;;;;;;1.63;1.52;;;36.30;32.30;;;;;;4989464;28;20033;-89
2022/08/11 12:19:16;;;;;;;1.50;1.40;;;36.10;31.80;;;;;;4989605;28;20054;-88
2022/08/11 12:27:21;;;;;;;3.38;1.33;;;36.20;32.90;;;;;;5008119;28;20033;-88
2022/08/11 12:29:51;;;;;;;1.73;1.20;;;36.60;33.70;;;;;;4988675;28;20034;-88
2022/08/11 12:32:19;;;;;;;2.40;1.20;;;36.90;33.90;;;;;;4986656;28;20062;-89
2022/08/11 12:34:45;;;;;;;2.40;1.42;;;37.00;32.00;;;;;;4992407;28;20408;-88
2022/08/11 12:37:15;;;;;;;1.55;1.45;;;36.80;31.60;;;;;;4988893;28;20631;-89
2022/08/11 12:45:27;;;;;;;3.00;1.20;;;37.10;31.30;;;;;;5003935;28;20516;-89
2022/08/11 12:54:01;;;;;;;2.38;1.42;;;36.90;31.70;;;;;;5002941;28;20081;-89
2022/08/11 13:05:07;;;;;;;1.70;1.30;;;38.20;30.50;;;;;;5001719;28;20247;-89
2022/08/11 13:07:38;;;;;;;2.83;1.30;;;38.60;30.70;;;;;;4995833;28;20041;-88
2022/08/11 13:10:07;;;;;;;1.33;1.23;;;38.50;29.70;;;;;;4994942;28;20117;-88
2022/08/11 13:12:48;;;;;;;3.63;1.48;;;38.60;30.50;;;;;;4991697;28;20403;-88
2022/08/11 13:15:20;;;;;;;2.73;1.40;;;38.60;30.30;;;;;;5013024;28;20160;-88
2022/08/11 13:17:48;;;;;;;2.83;1.27;;;38.80;29.80;;;;;;4988010;28;20104;-88
2022/08/11 13:20:18;;;;;;;2.25;1.20;;;38.60;29.50;;;;;;4993390;28;20041;-88
2022/08/11 13:22:48;;;;;;;1.42;1.33;;;38.60;30.00;;;;;;4992335;28;20053;-88
2022/08/11 13:25:21;;;;;;;2.13;1.10;;;38.80;29.90;;;;;;5008604;28;20051;-88
2022/08/11 13:27:49;;;;;;;1.65;1.10;;;39.20;30.00;;;;;;4988949;28;20033;-87
2022/08/11 13:33:02;;;;;;;1.50;1.10;;;39.90;29.90;;;;;;5003863;28;20439;-87
2022/08/11 13:35:30;;;;;;;1.10;0.90;;;40.20;29.20;;;;;;4997434;28;20041;-87
2022/08/11 13:37:57;;;;;;;2.42;1.25;;;39.80;28.30;;;;;;5000521;28;20038;-87
2022/08/11 13:40:24;;;;;;;2.60;1.20;;;39.80;28.00;;;;;;4998468;28;20041;-87
2022/08/11 13:42:51;;;;;;;1.45;1.00;;;39.70;28.50;;;;;;5012479;28;20076;-87
2022/08/11 13:45:21;;;;;;;2.33;1.20;;;39.40;29.00;;;;;;4986579;28;20042;-88
2022/08/11 13:47:47;;;;;;;4.75;1.30;;;39.50;28.30;;;;;;5007392;28;20173;-87
2022/08/11 13:50:14;;;;;;;1.98;1.38;;;39.50;29.00;;;;;;4996152;28;20034;-87
2022/08/11 13:52:41;;;;;;;1.20;1.10;;;39.90;29.20;;;;;;5002413;28;20117;-88
2022/08/11 13:55:09;;;;;;;1.83;1.10;;;40.40;28.90;;;;;;4999294;28;20050;-88
2022/08/11 13:57:36;;;;;;;1.30;1.08;;;40.50;28.10;;;;;;5016350;28;20067;-88
2022/08/11 14:00:10;;;;;;;2.75;1.17;;;40.80;28.30;;;;;;5006492;28;20048;-87
2022/08/11 14:02:42;;;;;;;5.93;1.10;;;41.00;28.40;;;;;;5012258;28;20034;-88
2022/08/11 14:05:14;;;;;;;;;;;41.30;28.30;;;;;;4994190;28;20073;-88
2022/08/11 14:07:57;;;;;;;;;;;41.20;28.40;;;;;;4995620;28;19917;-87
2022/08/11 14:10:30;;;;;;;3.25;1.10;;;41.10;27.40;;;;;;4999014;28;20367;-87
2022/08/11 14:16:03;;;;;;;2.00;1.25;;;41.40;27.80;;;;;;5009490;28;20049;-88
2022/08/11 14:18:31;;;;;;;1.77;1.13;;;41.20;28.20;;;;;;4993326;28;20123;-87
2022/08/11 14:23:54;;;;;;;2.58;1.02;;;41.70;26.90;;;;;;5004149;28;20041;-88
2022/08/11 14:26:25;;;;;;;1.52;1.10;;;41.10;27.20;;;;;;4994402;28;20521;-87
2022/08/11 14:28:55;;;;;;;1.30;1.20;;;41.30;27.70;;;;;;4983516;28;20508;-88
2022/08/11 14:31:24;;;;;;;2.40;1.17;;;41.70;27.80;;;;;;4988954;28;20037;-88
2022/08/11 14:34:01;;;;;;;1.58;1.13;;;41.90;27.10;;;;;;4994935;28;20034;-87
2022/08/11 14:36:34;;;;;;;1.58;1.20;;;42.10;27.50;;;;;;4996574;28;20041;-88
2022/08/11 14:39:11;;;;;;;2.08;1.27;;;42.00;26.80;;;;;;4998530;28;20400;-87
2022/08/11 14:47:17;;;;;;;1.73;1.00;;;41.40;26.30;;;;;;5004687;28;20548;-88
2022/08/11 14:49:44;;;;;;;2.05;1.00;;;41.60;27.10;;;;;;4988011;28;20088;-87
2022/08/11 14:52:16;;;;;;;2.80;1.20;;;41.90;27.10;;;;;;4988260;28;20030;-88
2022/08/11 14:57:35;;;;;;;2.58;1.20;;;42.10;26.80;;;;;;5030873;28;20045;-88
2022/08/11 15:00:05;;;;;;;1.92;1.15;;;42.60;26.80;;;;;;4997506;28;20463;-88
2022/08/11 15:05:21;;;;;;;2.53;1.40;;;42.00;26.80;;;;;;5013819;28;20069;-86
2022/08/11 15:07:47;;;;;;;3.13;1.08;;;41.50;27.50;;;;;;4995613;28;20541;-87
2022/08/11 15:10:17;;;;;;;1.90;1.10;;;41.30;27.70;;;;;;4996999;28;20045;-87
2022/08/11 15:12:43;;;;;;;1.10;1.00;;;41.70;28.10;;;;;;4987253;28;20041;-87
2022/08/11 15:17:57;;;;;;;3.35;1.15;;;42.10;28.10;;;;;;5006040;28;20041;-86
2022/08/11 15:26:10;;;;;;;2.88;1.30;;;42.50;27.70;;;;;;5003155;28;20053;-86
2022/08/11 15:37:26;;;;;;;2.40;1.23;;;42.20;27.40;;;;;;5006985;28;20116;-87
2022/08/11 15:46:24;;;;;;;2.25;1.20;;;41.80;28.10;;;;;;5029860;28;20072;-86
2022/08/11 15:48:57;;;;;;;1.77;1.10;;;41.80;27.60;;;;;;5002645;28;20045;-85
2022/08/11 15:51:41;;;;;;;1.67;1.42;;;41.50;27.70;;;;;;4997775;28;20183;-86
2022/08/11 15:54:11;;;;;;;2.80;1.33;;;41.50;27.30;;;;;;4997117;28;20479;-87
2022/08/11 15:56:42;;;;;;;1.52;1.23;;;41.30;28.20;;;;;;4992718;28;20183;-86
2022/08/11 16:04:44;;;;;;;1.20;1.10;;;40.90;27.90;;;;;;5006316;28;20397;-87
2022/08/11 16:07:17;;;;;;;2.45;1.20;;;40.80;28.00;;;;;;4992017;28;20404;-85
2022/08/11 16:09:44;;;;;;;2.70;1.05;;;40.80;28.30;;;;;;4996861;28;20099;-86
2022/08/11 16:12:13;;;;;;;2.35;1.08;;;40.70;28.00;;;;;;4996487;28;20037;-85
2022/08/11 16:17:32;;;;;;;2.03;1.10;;;40.40;27.70;;;;;;5007666;28;20057;-84
2022/08/11 16:20:01;;;;;;;1.70;1.20;;;40.50;28.60;;;;;;4993752;28;20068;-85
2022/08/11 16:22:42;;;;;;;1.48;1.10;;;40.60;28.00;;;;;;4999163;28;20041;-84
2022/08/11 16:25:11;;;;;;;3.15;1.08;;;40.60;28.40;;;;;;5000026;28;20311;-86
2022/08/11 16:27:43;;;;;;;3.05;1.20;;;40.50;28.10;;;;;;5001146;28;20034;-85
2022/08/11 16:30:09;;;;;;;1.30;1.30;;;40.60;28.40;;;;;;4995846;28;20034;-86
2022/08/11 16:32:39;;;;;;;1.90;1.20;;;40.50;29.00;;;;;;4993750;28;20060;-85
2022/08/11 16:40:58;;;;;;;1.35;1.25;;;39.60;28.70;;;;;;5010233;28;20349;-85
2022/08/11 16:49:07;;;;;;;1.50;1.40;;;38.30;29.70;;;;;;5009652;28;20041;-85
2022/08/11 16:51:33;;;;;;;2.22;1.67;;;37.30;30.20;;;;;;4993825;28;20443;-85
2022/08/11 16:53:59;;;;;;;2.35;1.40;;;36.60;31.40;;;;;;4995115;28;20065;-85
2022/08/11 16:56:40;;;;;;;2.53;1.40;;;35.80;31.90;;;;;;4993081;28;20052;-85
2022/08/11 16:59:15;;;;;;;2.28;1.35;;;35.00;32.50;;;;;;4983598;28;20633;-84
2022/08/11 17:01:55;;;;;;;1.60;1.50;;;34.20;33.40;;;;;;4996020;28;20495;-85
2022/08/11 17:13:10;;;;;;;2.75;1.50;;;32.20;35.80;;;;;;5024395;28;20125;-84
2022/08/11 17:16:06;;;;;;;3.22;1.65;;;31.90;36.70;;;;;;5012251;28;20077;-84
2022/08/11 17:18:44;;;;;;;2.58;1.70;;;31.70;37.70;;;;;;5000777;28;20038;-84
2022/08/11 17:21:35;;;;;;;3.10;1.55;;;31.40;37.70;;;;;;5008972;28;20029;-85
2022/08/11 17:24:09;;;;;;;1.83;1.67;;;31.20;38.80;;;;;;5004982;28;20420;-84
2022/08/11 17:26:57;;;;;;;2.88;1.80;;;30.90;38.10;;;;;;5022606;28;20037;-85
2022/08/11 17:29:40;;;;;;;1.42;1.33;;;30.80;39.10;;;;;;5021000;28;20060;-86
2022/08/11 17:38:23;;;;;;;3.20;1.80;;;30.20;39.60;;;;;;5016615;28;20115;-86
2022/08/11 17:49:19;;;;;;;2.58;1.80;;;29.50;41.00;;;;;;5023124;28;20041;-86
2022/08/11 18:00:06;;;;;;;3.42;1.75;;;28.90;43.30;;;;;;5020082;28;20061;-87
2022/08/11 18:05:35;;;;;;;2.45;1.88;;;28.70;42.60;;;;;;5018718;28;20519;-87
